Time;durP1;ratioP1;P1;durP2;ratioP2;P2;SDS_P1;SDS_P2;PMS_P1;PMS_P2;Temp;Humidity;BMP_temperature;BMP_pressure;BME280_temperature;BME280_humidity;BME280_pressure;Samples;Min_cycle;Max_cycle;Signal;HPM_P1;HPM_P2
2022/10/05 00:02:23;;;;;;;9.83;6.40;;;12.40;1.00;;;;;;5038113;28;20634;-63
2022/10/05 00:04:55;;;;;;;13.17;7.10;;;12.50;1.00;;;;;;5037635;28;20223;-63
2022/10/05 00:07:23;;;;;;;7.50;6.33;;;12.60;1.00;;;;;;5036926;28;20239;-63
2022/10/05 00:09:56;;;;;;;10.00;5.93;;;12.60;1.00;;;;;;5036973;28;20648;-61
2022/10/05 00:12:24;;;;;;;8.67;6.60;;;12.60;1.00;;;;;;5038401;28;20310;-61
2022/10/05 00:14:58;;;;;;;11.13;6.30;;;12.50;1.00;;;;;;5021510;28;20199;-62
2022/10/05 00:17:29;;;;;;;10.73;6.83;;;12.50;1.00;;;;;;5025855;28;20212;-61
2022/10/05 00:19:56;;;;;;;6.67;5.97;;;12.50;1.00;;;;;;5035953;28;20706;-61
2022/10/05 00:22:32;;;;;;;11.13;7.00;;;12.60;1.00;;;;;;5017989;28;20203;-64
2022/10/05 00:25:03;;;;;;;8.93;6.67;;;12.50;1.00;;;;;;5027283;28;20219;-63
2022/10/05 00:27:33;;;;;;;9.67;6.73;;;12.50;1.00;;;;;;5004334;28;20232;-60
2022/10/05 00:30:12;;;;;;;19.63;6.97;;;12.60;1.00;;;;;;5039179;28;20287;-62
2022/10/05 00:32:39;;;;;;;10.23;6.53;;;12.60;1.00;;;;;;5036497;28;20205;-62
2022/10/05 00:35:06;;;;;;;9.37;6.30;;;12.80;1.00;;;;;;5034960;28;20282;-61
2022/10/05 00:37:33;;;;;;;11.47;6.67;;;12.80;1.00;;;;;;5041000;28;20695;-61
2022/10/05 00:40:02;;;;;;;10.93;6.67;;;12.80;1.00;;;;;;5056798;28;20314;-61
2022/10/05 00:42:44;;;;;;;8.80;6.37;;;12.80;1.00;;;;;;5043665;28;20342;-64
2022/10/05 00:45:26;;;;;;;10.20;6.13;;;12.90;1.00;;;;;;5037301;28;20199;-64
2022/10/05 00:48:19;;;;;;;8.10;6.47;;;12.90;1.00;;;;;;5024045;28;20195;-64
2022/10/05 00:50:55;;;;;;;7.17;5.87;;;12.90;1.00;;;;;;5041351;28;20204;-64
2022/10/05 00:53:31;;;;;;;9.63;6.17;;;12.80;1.00;;;;;;5015140;28;20207;-64
2022/10/05 00:56:22;;;;;;;8.77;6.10;;;12.70;1.00;;;;;;5030103;28;20190;-64
2022/10/05 00:59:01;;;;;;;10.13;5.77;;;12.60;1.00;;;;;;5031544;28;20265;-64
2022/10/05 01:01:41;;;;;;;9.00;6.47;;;12.70;1.00;;;;;;5042510;28;20188;-64
2022/10/05 01:04:40;;;;;;;7.87;5.90;;;12.70;1.00;;;;;;5041082;28;20524;-64
2022/10/05 01:07:09;;;;;;;11.67;6.77;;;12.70;1.00;;;;;;4966852;28;20203;-64
2022/10/05 01:10:01;;;;;;;8.53;6.70;;;12.70;1.00;;;;;;5024352;28;20219;-62
2022/10/05 01:12:54;;;;;;;8.67;6.97;;;12.70;1.00;;;;;;5029658;28;20302;-63
2022/10/05 01:15:50;;;;;;;11.60;6.73;;;12.70;1.00;;;;;;5040564;28;20207;-61
2022/10/05 01:18:38;;;;;;;8.97;6.47;;;12.70;1.00;;;;;;5013633;28;20199;-61
2022/10/05 01:21:30;;;;;;;10.07;6.60;;;12.80;1.00;;;;;;5022765;28;20261;-61
2022/10/05 01:24:43;;;;;;;10.10;6.40;;;12.80;1.00;;;;;;5032942;28;20235;-61
2022/10/05 01:27:35;;;;;;;7.37;5.93;;;12.70;1.00;;;;;;5031769;28;20263;-61
2022/10/05 01:30:14;;;;;;;8.77;6.43;;;12.60;1.00;;;;;;5055661;28;20204;-61
2022/10/05 01:32:54;;;;;;;11.50;6.77;;;12.60;1.00;;;;;;5039044;28;20262;-61
2022/10/05 01:35:23;;;;;;;11.70;7.10;;;12.50;1.00;;;;;;5022401;28;20279;-61
2022/10/05 01:38:32;;;;;;;9.17;5.90;;;12.50;1.00;;;;;;5037952;28;20284;-61
2022/10/05 01:41:06;;;;;;;9.67;6.20;;;12.50;1.00;;;;;;4991927;28;20702;-62
2022/10/05 01:43:55;;;;;;;9.17;6.73;;;12.50;1.00;;;;;;5024192;28;20223;-62
2022/10/05 01:46:42;;;;;;;9.27;6.67;;;12.40;1.00;;;;;;5029128;28;20254;-62
2022/10/05 01:49:12;;;;;;;7.90;6.93;;;12.40;1.00;;;;;;5029291;28;20194;-62
2022/10/05 01:52:31;;;;;;;8.53;6.80;;;12.40;1.00;;;;;;5020434;28;20196;-62
2022/10/05 01:55:30;;;;;;;8.93;6.60;;;12.50;1.00;;;;;;4987465;28;20299;-62
2022/10/05 01:58:38;;;;;;;9.20;6.60;;;12.40;1.00;;;;;;5029013;28;20223;-62
2022/10/05 02:01:37;;;;;;;10.67;7.03;;;12.40;1.00;;;;;;4966618;28;20245;-63
2022/10/05 02:04:22;;;;;;;10.50;7.77;;;12.40;1.00;;;;;;4963199;28;20663;-64
2022/10/05 02:07:21;;;;;;;9.23;6.53;;;12.40;1.00;;;;;;5005213;28;20210;-62
2022/10/05 02:09:54;;;;;;;14.27;7.23;;;12.40;1.00;;;;;;5020711;28;20279;-64
2022/10/05 02:12:28;;;;;;;14.57;7.13;;;12.40;19.40;;;;;;5035153;28;20894;-64
2022/10/05 02:15:02;;;;;;;10.20;6.57;;;12.40;46.30;;;;;;5039399;28;20185;-63
2022/10/05 02:17:39;;;;;;;7.97;6.70;;;12.40;80.50;;;;;;5057310;28;20196;-63
2022/10/05 02:20:10;;;;;;;9.17;7.27;;;12.40;84.10;;;;;;5022365;28;20216;-64
2022/10/05 02:22:50;;;;;;;13.83;7.80;;;12.30;99.90;;;;;;5037971;28;20278;-63
2022/10/05 02:25:27;;;;;;;8.97;7.30;;;12.30;99.90;;;;;;5020687;28;20272;-64
2022/10/05 02:28:00;;;;;;;12.00;7.20;;;12.20;99.90;;;;;;5020797;28;20603;-63
2022/10/05 02:30:30;;;;;;;12.20;8.27;;;12.30;99.90;;;;;;5011190;28;20218;-63
2022/10/05 02:33:03;;;;;;;12.13;7.47;;;12.40;99.90;;;;;;5020556;28;20231;-63
2022/10/05 02:35:30;;;;;;;11.80;7.07;;;12.50;88.10;;;;;;5025546;28;20290;-64
2022/10/05 02:38:16;;;;;;;13.50;7.60;;;12.50;80.80;;;;;;5038501;28;20614;-63
2022/10/05 02:40:52;;;;;;;15.07;7.33;;;12.40;99.90;;;;;;5036533;28;20208;-63
2022/10/05 02:43:31;;;;;;;11.80;7.97;;;12.40;99.90;;;;;;5029448;28;20710;-64
2022/10/05 02:46:13;;;;;;;9.67;7.37;;;12.40;99.90;;;;;;5036877;28;20204;-63
2022/10/05 02:48:58;;;;;;;11.73;7.47;;;12.50;92.00;;;;;;5040187;28;20192;-63
2022/10/05 02:52:03;;;;;;;11.07;8.10;;;12.40;99.90;;;;;;5038313;28;20195;-63
2022/10/05 02:54:36;;;;;;;11.63;7.97;;;12.30;99.90;;;;;;5012691;28;20279;-63
2022/10/05 02:57:09;;;;;;;15.60;7.50;;;12.20;99.90;;;;;;5020799;28;20604;-63
2022/10/05 03:00:02;;;;;;;10.63;7.57;;;12.10;99.90;;;;;;5037597;28;20797;-64
2022/10/05 03:03:02;;;;;;;10.43;8.53;;;12.00;1.00;;;;;;5053536;28;20210;-61
2022/10/05 03:05:57;;;;;;;22.80;14.40;;;12.00;1.00;;;;;;5022482;28;20227;-61
2022/10/05 03:08:45;;;;;;;15.53;9.13;;;12.00;1.00;;;;;;5005381;28;20196;-64
2022/10/05 03:11:28;;;;;;;12.30;8.30;;;12.10;1.00;;;;;;5020083;28;20203;-64
2022/10/05 03:14:19;;;;;;;9.63;7.70;;;12.30;99.90;;;;;;5020424;28;20575;-64
2022/10/05 03:17:16;;;;;;;10.50;7.30;;;12.40;99.90;;;;;;5028371;28;20202;-64
2022/10/05 03:20:03;;;;;;;11.80;7.87;;;12.50;73.40;;;;;;5010330;28;20918;-64
2022/10/05 03:22:43;;;;;;;13.63;7.97;;;12.60;29.50;;;;;;5038452;28;20208;-64
2022/10/05 03:25:35;;;;;;;15.83;7.23;;;12.60;1.00;;;;;;5025165;28;20287;-63
2022/10/05 03:28:15;;;;;;;11.07;7.30;;;12.60;1.00;;;;;;5031753;28;20232;-62
2022/10/05 03:31:00;;;;;;;10.80;7.43;;;12.60;1.00;;;;;;5008565;28;20199;-62
2022/10/05 03:33:39;;;;;;;8.20;7.20;;;12.70;1.00;;;;;;5019612;28;20203;-62
2022/10/05 03:36:28;;;;;;;12.27;7.70;;;12.70;1.00;;;;;;5032859;28;20204;-62
2022/10/05 03:39:11;;;;;;;10.37;7.60;;;12.70;1.00;;;;;;5014930;28;20204;-62
2022/10/05 03:42:02;;;;;;;12.00;6.93;;;12.70;1.00;;;;;;5013261;28;20236;-61
2022/10/05 03:45:07;;;;;;;11.37;7.17;;;12.80;1.00;;;;;;5019412;28;20189;-62
2022/10/05 03:48:02;;;;;;;10.80;7.67;;;12.90;1.00;;;;;;5029728;28;20201;-61
2022/10/05 03:50:31;;;;;;;12.43;7.47;;;13.00;1.00;;;;;;5015382;28;20660;-61
2022/10/05 03:53:04;;;;;;;9.40;6.83;;;13.00;1.00;;;;;;5016289;28;20262;-62
2022/10/05 03:55:41;;;;;;;8.43;7.20;;;13.10;1.00;;;;;;5032933;28;20295;-61
2022/10/05 03:58:40;;;;;;;9.13;6.73;;;13.30;1.00;;;;;;5018779;28;20199;-62
2022/10/05 04:01:17;;;;;;;11.67;7.83;;;13.30;1.00;;;;;;5016805;28;20220;-62
2022/10/05 04:03:49;;;;;;;8.80;6.40;;;13.30;1.00;;;;;;5018226;28;20227;-62
2022/10/05 04:06:25;;;;;;;11.30;7.27;;;13.30;1.00;;;;;;5018835;28;20196;-64
2022/10/05 04:09:19;;;;;;;10.83;6.03;;;13.20;1.00;;;;;;5018318;28;20189;-63
2022/10/05 04:12:24;;;;;;;10.03;6.27;;;13.20;1.00;;;;;;5015934;28;20200;-63
2022/10/05 04:14:59;;;;;;;10.97;6.47;;;13.10;1.00;;;;;;5016370;28;20200;-63
2022/10/05 04:17:34;;;;;;;8.97;6.77;;;13.10;1.00;;;;;;5002523;28;20203;-64
2022/10/05 04:20:13;;;;;;;10.93;6.63;;;13.10;1.00;;;;;;5032362;28;20216;-64
2022/10/05 04:22:46;;;;;;;9.93;7.07;;;13.00;1.00;;;;;;5017423;28;20594;-63
2022/10/05 04:25:19;;;;;;;8.67;6.73;;;13.10;1.00;;;;;;5036107;28;20195;-64
2022/10/05 04:28:10;;;;;;;9.93;7.40;;;13.10;1.00;;;;;;5034191;28;20281;-62
2022/10/05 04:30:42;;;;;;;11.47;7.10;;;13.00;1.00;;;;;;5021285;28;20192;-59
2022/10/05 04:33:14;;;;;;;14.23;7.03;;;13.10;1.00;;;;;;5017879;28;20228;-63
2022/10/05 04:36:05;;;;;;;9.30;6.87;;;13.00;1.00;;;;;;5023933;28;20196;-58
2022/10/05 04:38:44;;;;;;;11.27;7.60;;;12.90;1.00;;;;;;5025526;28;20251;-60
2022/10/05 04:41:43;;;;;;;12.57;7.23;;;12.80;1.00;;;;;;5017632;28;20204;-59
2022/10/05 04:44:32;;;;;;;12.63;7.40;;;12.80;1.00;;;;;;5033314;28;20638;-59
2022/10/05 04:47:14;;;;;;;10.67;7.33;;;12.80;1.00;;;;;;5002134;28;20287;-60
2022/10/05 04:49:44;;;;;;;11.23;7.83;;;12.80;1.00;;;;;;5032323;28;20304;-61
2022/10/05 04:52:45;;;;;;;10.90;7.77;;;12.80;1.00;;;;;;5016656;28;20315;-58
2022/10/05 04:55:21;;;;;;;12.00;8.20;;;12.70;1.00;;;;;;5023003;28;20226;-60
2022/10/05 04:58:13;;;;;;;10.77;8.07;;;12.70;1.00;;;;;;5016856;28;20263;-61
2022/10/05 05:01:01;;;;;;;16.00;7.93;;;12.60;43.00;;;;;;5011137;28;20239;-61
2022/10/05 05:03:57;;;;;;;12.27;8.23;;;12.60;77.50;;;;;;5020367;28;20279;-61
2022/10/05 05:06:41;;;;;;;9.40;8.00;;;12.60;99.90;;;;;;5023838;28;20251;-60
2022/10/05 05:09:37;;;;;;;11.33;8.07;;;12.50;99.90;;;;;;5031963;28;20193;-61
2022/10/05 05:12:40;;;;;;;10.70;8.37;;;12.30;99.90;;;;;;5016144;28;20221;-61
2022/10/05 05:15:46;;;;;;;12.87;8.57;;;12.40;99.90;;;;;;5022303;28;20246;-61
2022/10/05 05:18:31;;;;;;;13.77;7.87;;;12.30;99.90;;;;;;5014630;28;20204;-61
2022/10/05 05:21:14;;;;;;;9.90;7.83;;;12.40;99.90;;;;;;5029201;28;20209;-62
2022/10/05 05:24:04;;;;;;;15.03;8.00;;;12.50;99.90;;;;;;5015001;28;20276;-60
2022/10/05 05:27:02;;;;;;;10.27;8.47;;;12.40;99.90;;;;;;5037357;28;20201;-61
2022/10/05 05:29:41;;;;;;;13.03;8.20;;;12.40;99.90;;;;;;5021691;28;20669;-60
2022/10/05 05:32:39;;;;;;;10.27;8.50;;;12.30;99.90;;;;;;5037829;28;20716;-60
2022/10/05 05:35:22;;;;;;;12.93;8.93;;;12.40;99.90;;;;;;5037805;28;20215;-60
2022/10/05 05:38:18;;;;;;;9.40;8.23;;;12.30;99.90;;;;;;5039341;28;20199;-59
2022/10/05 05:41:04;;;;;;;10.60;7.87;;;12.30;99.90;;;;;;5020515;28;20297;-61
2022/10/05 05:43:43;;;;;;;11.27;7.93;;;12.40;99.90;;;;;;5037951;28;20231;-60
2022/10/05 05:46:16;;;;;;;13.33;7.57;;;12.50;99.90;;;;;;5021455;28;20200;-60
2022/10/05 05:48:46;;;;;;;14.67;8.10;;;12.50;99.90;;;;;;5037997;28;20546;-61
2022/10/05 05:51:23;;;;;;;12.00;7.97;;;12.50;99.90;;;;;;5051122;28;20199;-58
2022/10/05 05:53:58;;;;;;;12.70;7.93;;;12.70;1.00;;;;;;5036251;28;20199;-62
2022/10/05 05:56:41;;;;;;;11.70;8.30;;;12.80;1.00;;;;;;5021254;28;20325;-61
2022/10/05 05:59:59;;;;;;;13.10;7.67;;;12.80;1.00;;;;;;5052364;28;20242;-59
2022/10/05 06:02:40;;;;;;;14.70;8.10;;;13.00;1.00;;;;;;4978405;28;20305;-60
2022/10/05 06:05:32;;;;;;;9.47;7.93;;;13.10;1.00;;;;;;5023326;28;20192;-61
2022/10/05 06:08:15;;;;;;;10.13;7.60;;;13.10;1.00;;;;;;5039882;28;20275;-61
2022/10/05 06:10:51;;;;;;;10.30;7.60;;;13.20;1.00;;;;;;5005673;28;20694;-60
2022/10/05 06:13:33;;;;;;;11.10;7.60;;;13.20;1.00;;;;;;5020201;28;20306;-60
2022/10/05 06:16:12;;;;;;;10.87;7.93;;;13.30;1.00;;;;;;5038199;28;20269;-61
2022/10/05 06:18:45;;;;;;;9.97;7.30;;;13.30;1.00;;;;;;5037132;28;20279;-61
2022/10/05 06:21:31;;;;;;;8.93;7.63;;;13.30;1.00;;;;;;5028448;28;20211;-61
2022/10/05 06:24:19;;;;;;;10.80;7.43;;;13.30;1.00;;;;;;5027901;28;20180;-60
2022/10/05 06:27:11;;;;;;;12.03;7.97;;;13.40;1.00;;;;;;5018765;28;20755;-59
2022/10/05 06:29:47;;;;;;;10.30;7.60;;;13.40;99.90;;;;;;5014914;28;20192;-61
2022/10/05 06:32:49;;;;;;;10.97;7.90;;;13.40;99.90;;;;;;5017805;28;20648;-60
2022/10/05 06:35:40;;;;;;;10.93;7.10;;;13.50;99.90;;;;;;5003235;28;20203;-60
2022/10/05 06:38:26;;;;;;;11.10;7.50;;;13.60;99.90;;;;;;5000027;28;20266;-61
2022/10/05 06:40:59;;;;;;;11.20;7.87;;;13.60;99.90;;;;;;5008413;28;20219;-61
2022/10/05 06:43:39;;;;;;;10.63;7.43;;;13.60;99.90;;;;;;5017532;28;20224;-60
2022/10/05 06:46:41;;;;;;;8.40;7.03;;;13.70;99.90;;;;;;4983179;28;20235;-61
2022/10/05 06:49:42;;;;;;;9.83;7.40;;;13.70;99.90;;;;;;5022187;28;20364;-62
2022/10/05 06:52:35;;;;;;;9.23;6.57;;;13.80;99.90;;;;;;5026974;28;20203;-62
2022/10/05 06:55:17;;;;;;;9.33;7.63;;;13.80;99.90;;;;;;5010499;28;20283;-59
2022/10/05 06:58:06;;;;;;;10.23;7.53;;;13.90;99.90;;;;;;5025492;28;20209;-61
2022/10/05 07:00:43;;;;;;;9.03;7.00;;;13.90;99.90;;;;;;5020917;28;20222;-59
2022/10/05 07:03:35;;;;;;;7.53;6.67;;;14.00;99.90;;;;;;5034630;28;20605;-60
2022/10/05 07:06:15;;;;;;;8.77;7.27;;;14.10;99.90;;;;;;5008968;28;20766;-63
2022/10/05 07:08:49;;;;;;;11.43;6.97;;;14.10;99.90;;;;;;5033621;28;20232;-60
2022/10/05 07:11:28;;;;;;;7.10;6.20;;;14.20;99.90;;;;;;5019118;28;20843;-61
2022/10/05 07:14:13;;;;;;;6.77;6.03;;;14.30;99.90;;;;;;5033644;28;20224;-60
2022/10/05 07:17:18;;;;;;;7.67;6.13;;;14.30;75.80;;;;;;5025298;28;20204;-62
2022/10/05 07:19:56;;;;;;;6.77;6.07;;;14.40;84.70;;;;;;5017573;28;20207;-61
2022/10/05 07:22:56;;;;;;;6.07;5.47;;;14.50;33.80;;;;;;5033675;28;20208;-60
2022/10/05 07:25:35;;;;;;;8.67;5.77;;;14.60;21.00;;;;;;4981647;28;20200;-60
2022/10/05 07:28:13;;;;;;;6.17;5.57;;;14.60;1.00;;;;;;5017708;28;20224;-60
2022/10/05 07:31:20;;;;;;;8.60;5.63;;;14.70;1.00;;;;;;5014947;28;20223;-60
2022/10/05 07:34:06;;;;;;;6.43;5.23;;;14.80;1.00;;;;;;4987586;28;20728;-62
2022/10/05 07:40:14;;;;;;;5.93;5.27;;;15.00;1.00;;;;;;5030645;28;20207;-64
2022/10/05 07:43:06;;;;;;;7.63;4.90;;;15.00;1.00;;;;;;5034134;28;20220;-63
2022/10/05 07:45:50;;;;;;;8.00;5.23;;;15.00;1.00;;;;;;5032425;28;20206;-63
2022/10/05 07:48:21;;;;;;;7.03;4.97;;;15.10;1.00;;;;;;5034019;28;20247;-63
2022/10/05 07:51:14;;;;;;;5.57;4.80;;;15.10;1.00;;;;;;5017420;28;20200;-63
2022/10/05 07:53:58;;;;;;;6.33;4.47;;;15.20;1.00;;;;;;5018365;28;20694;-63
2022/10/05 07:56:37;;;;;;;8.47;4.80;;;15.20;1.00;;;;;;5007156;28;20211;-63
2022/10/05 07:59:12;;;;;;;5.27;4.30;;;15.40;1.00;;;;;;5025808;28;20210;-63
2022/10/05 08:01:46;;;;;;;6.90;4.83;;;15.40;1.00;;;;;;5018931;28;20218;-62
2022/10/05 08:04:26;;;;;;;6.17;4.50;;;15.30;1.00;;;;;;5018299;28;20773;-63
2022/10/05 08:06:58;;;;;;;5.37;4.23;;;15.30;1.00;;;;;;5019289;28;20192;-63
2022/10/05 08:10:01;;;;;;;7.57;4.50;;;15.40;1.00;;;;;;5017736;28;20188;-64
2022/10/05 08:12:56;;;;;;;5.40;3.90;;;15.40;1.00;;;;;;4961477;28;20226;-63
2022/10/05 08:15:47;;;;;;;6.67;4.00;;;15.40;1.00;;;;;;5017173;28;20205;-63
2022/10/05 08:18:45;;;;;;;4.83;4.10;;;15.40;1.00;;;;;;5017257;28;20192;-62
2022/10/05 08:21:15;;;;;;;6.80;4.53;;;15.40;1.00;;;;;;5018034;28;20240;-63
2022/10/05 08:23:50;;;;;;;5.33;4.00;;;15.40;1.00;;;;;;5024706;28;20240;-63
2022/10/05 08:26:27;;;;;;;9.93;4.60;;;15.50;1.00;;;;;;5016037;28;20286;-63
2022/10/05 08:28:59;;;;;;;6.97;4.50;;;15.50;1.00;;;;;;5035039;28;20196;-63
2022/10/05 08:31:36;;;;;;;5.90;3.87;;;15.50;1.00;;;;;;5028176;28;20203;-63
2022/10/05 08:34:21;;;;;;;6.80;4.70;;;15.50;1.00;;;;;;5036693;28;20729;-63
2022/10/05 08:36:59;;;;;;;6.57;4.25;;;15.40;1.00;;;;;;5038541;28;20735;-63
2022/10/05 08:39:34;;;;;;;5.73;4.13;;;15.40;1.00;;;;;;5038070;28;20239;-63
2022/10/05 08:42:20;;;;;;;6.00;4.40;;;15.50;1.00;;;;;;5037373;28;20201;-60
2022/10/05 08:45:13;;;;;;;4.70;4.20;;;15.50;1.00;;;;;;5020805;28;20208;-60
2022/10/05 08:47:56;;;;;;;5.10;3.85;;;15.60;1.00;;;;;;5020298;28;20286;-63
2022/10/05 08:50:23;;;;;;;7.50;3.97;;;15.60;1.00;;;;;;5025285;28;20305;-63
2022/10/05 08:53:11;;;;;;;4.43;4.00;;;15.60;1.00;;;;;;5025537;28;20203;-63
2022/10/05 08:55:41;;;;;;;10.60;4.13;;;15.60;1.00;;;;;;5020806;28;20675;-63
2022/10/05 08:58:11;;;;;;;4.47;3.53;;;15.70;1.00;;;;;;5037503;28;20188;-60
2022/10/05 09:00:46;;;;;;;4.15;3.63;;;15.80;1.00;;;;;;5023280;28;20870;-63
2022/10/05 09:03:38;;;;;;;6.28;3.72;;;15.80;1.00;;;;;;5029424;28;20242;-63
2022/10/05 09:06:05;;;;;;;4.93;3.70;;;16.00;1.00;;;;;;5007128;28;20199;-63
2022/10/05 09:08:53;;;;;;;4.28;3.35;;;16.10;1.00;;;;;;5040913;28;20202;-63
2022/10/05 09:11:40;;;;;;;3.78;2.97;;;16.10;1.00;;;;;;5041003;28;20191;-63
2022/10/05 09:14:13;;;;;;;5.68;3.80;;;16.20;1.00;;;;;;5040331;28;20558;-62
2022/10/05 09:17:14;;;;;;;7.07;3.47;;;16.30;1.00;;;;;;5043852;28;20198;-61
2022/10/05 09:20:05;;;;;;;5.38;3.40;;;16.40;1.00;;;;;;5041217;28;20244;-63
2022/10/05 09:22:58;;;;;;;6.07;3.67;;;16.50;1.00;;;;;;5040707;28;20218;-63
2022/10/05 09:25:37;;;;;;;5.60;3.30;;;16.60;1.00;;;;;;5040525;28;20270;-63
2022/10/05 09:28:27;;;;;;;6.20;3.60;;;16.60;1.00;;;;;;5036975;28;20702;-63
2022/10/05 09:31:04;;;;;;;4.10;3.70;;;16.60;1.00;;;;;;5023619;28;20199;-63
2022/10/05 09:33:39;;;;;;;7.00;3.75;;;16.70;1.00;;;;;;5040006;28;20572;-63
2022/10/05 09:36:06;;;;;;;6.85;3.55;;;16.70;1.00;;;;;;5051188;28;20585;-63
2022/10/05 09:39:01;;;;;;;4.32;3.70;;;16.70;1.00;;;;;;5039483;28;20271;-61
2022/10/05 09:41:50;;;;;;;4.03;3.60;;;16.90;1.00;;;;;;5040934;28;20215;-61
2022/10/05 09:44:17;;;;;;;4.10;3.70;;;16.90;1.00;;;;;;5006874;28;20197;-61
2022/10/05 09:47:24;;;;;;;4.20;3.70;;;17.10;1.00;;;;;;5041345;28;20200;-61
2022/10/05 09:50:29;;;;;;;3.92;3.53;;;17.10;1.00;;;;;;5041239;28;20196;-62
2022/10/05 09:53:39;;;;;;;4.03;3.53;;;17.40;1.00;;;;;;5038661;28;20547;-61
2022/10/05 09:56:21;;;;;;;4.22;3.47;;;17.40;1.00;;;;;;5056044;28;20203;-62
2022/10/05 09:59:25;;;;;;;3.88;3.28;;;17.30;1.00;;;;;;5029872;28;20213;-62
2022/10/05 10:02:17;;;;;;;4.07;3.78;;;17.60;1.00;;;;;;5042116;28;20275;-62
2022/10/05 10:04:47;;;;;;;4.68;3.42;;;17.40;1.00;;;;;;5042773;28;20180;-62
2022/10/05 10:07:38;;;;;;;3.85;3.50;;;17.50;1.00;;;;;;5041795;28;20192;-62
2022/10/05 10:10:20;;;;;;;8.57;3.47;;;17.60;1.00;;;;;;5042276;28;20264;-62
2022/10/05 10:13:28;;;;;;;5.10;3.67;;;17.70;1.00;;;;;;5039263;28;20323;-62
2022/10/05 10:16:14;;;;;;;7.28;3.67;;;17.90;1.00;;;;;;5023011;28;20215;-62
2022/10/05 10:18:56;;;;;;;5.38;3.90;;;18.00;1.00;;;;;;5029160;28;20192;-62
2022/10/05 10:21:33;;;;;;;4.18;3.50;;;18.30;1.00;;;;;;5010372;28;20259;-61
2022/10/05 10:24:15;;;;;;;3.50;3.20;;;18.00;1.00;;;;;;5021139;28;20210;-62
2022/10/05 10:27:16;;;;;;;3.65;3.15;;;17.80;1.00;;;;;;5041448;28;20757;-62
2022/10/05 10:30:17;;;;;;;4.07;2.97;;;18.00;1.00;;;;;;5037696;28;20608;-62
2022/10/05 10:32:56;;;;;;;3.47;3.13;;;18.50;1.00;;;;;;5024089;28;20195;-61
2022/10/05 10:35:52;;;;;;;3.78;3.47;;;18.40;1.00;;;;;;5032585;28;20807;-61
2022/10/05 10:38:31;;;;;;;5.07;3.38;;;18.30;1.00;;;;;;5040754;28;20210;-62
2022/10/05 10:41:25;;;;;;;6.38;3.45;;;18.20;1.00;;;;;;5041539;28;20334;-62
2022/10/05 10:43:58;;;;;;;5.75;3.00;;;18.40;1.00;;;;;;5055798;28;20204;-61
2022/10/05 10:46:48;;;;;;;5.18;2.95;;;18.40;1.00;;;;;;5056402;28;20852;-61
2022/10/05 10:49:28;;;;;;;3.40;3.10;;;18.40;1.00;;;;;;5021970;28;20251;-62
2022/10/05 10:52:22;;;;;;;4.32;2.50;;;18.20;1.00;;;;;;5038923;28;20223;-61
2022/10/05 10:55:28;;;;;;;4.30;2.72;;;18.40;1.00;;;;;;5042612;28;20691;-62
2022/10/05 10:58:13;;;;;;;5.28;2.63;;;18.30;1.00;;;;;;5010226;28;20211;-62
2022/10/05 11:01:11;;;;;;;5.50;2.80;;;18.30;1.00;;;;;;5037342;28;20208;-62
2022/10/05 11:04:06;;;;;;;6.78;2.75;;;18.40;1.00;;;;;;4998219;28;20212;-62
2022/10/05 11:06:57;;;;;;;3.70;2.63;;;18.20;1.00;;;;;;5022323;28;20199;-61
2022/10/05 11:09:49;;;;;;;6.82;2.75;;;18.00;1.00;;;;;;5013505;28;20246;-62
2022/10/05 11:12:57;;;;;;;4.72;2.30;;;18.10;1.00;;;;;;5039224;28;20220;-61
2022/10/05 11:16:01;;;;;;;4.20;2.42;;;18.50;1.00;;;;;;5040767;28;20230;-62
2022/10/05 11:18:48;;;;;;;2.83;2.35;;;18.60;1.00;;;;;;5042456;28;20502;-62
2022/10/05 11:21:29;;;;;;;4.65;2.45;;;18.30;1.00;;;;;;5009241;28;20206;-62
2022/10/05 11:24:31;;;;;;;3.25;2.47;;;18.40;1.00;;;;;;5026656;28;20679;-62
2022/10/05 11:27:13;;;;;;;4.63;2.60;;;18.40;1.00;;;;;;5040126;28;20271;-62
2022/10/05 11:30:05;;;;;;;6.28;2.50;;;18.20;1.00;;;;;;5040871;28;20204;-61
2022/10/05 11:33:20;;;;;;;5.10;2.03;;;18.20;1.00;;;;;;5041884;28;20219;-62
2022/10/05 11:36:16;;;;;;;3.38;2.00;;;18.40;1.00;;;;;;4928733;29;20208;-62
2022/10/05 11:39:04;;;;;;;4.32;2.05;;;18.80;1.00;;;;;;5037496;28;20393;-63
2022/10/05 11:42:09;;;;;;;2.42;2.10;;;18.70;1.00;;;;;;5040861;28;20208;-63
2022/10/05 11:44:57;;;;;;;2.10;1.80;;;18.70;1.00;;;;;;5038576;28;20196;-62
2022/10/05 11:47:36;;;;;;;2.30;1.80;;;19.80;1.00;;;;;;5040886;28;20271;-62
2022/10/05 11:50:25;;;;;;;4.32;1.80;;;20.00;1.00;;;;;;5040346;28;20775;-63
2022/10/05 11:52:57;;;;;;;4.88;2.20;;;20.10;1.00;;;;;;5039416;28;20222;-62
2022/10/05 11:56:09;;;;;;;2.80;2.00;;;20.10;1.00;;;;;;5029477;28;20200;-62
2022/10/05 11:59:04;;;;;;;2.40;1.80;;;20.30;1.00;;;;;;4945814;28;20198;-63
2022/10/05 12:01:45;;;;;;;3.13;1.75;;;21.20;1.00;;;;;;4951994;28;20285;-62
2022/10/05 12:04:33;;;;;;;2.63;1.85;;;21.70;1.00;;;;;;5021994;28;20215;-63
2022/10/05 12:07:19;;;;;;;2.30;1.98;;;20.80;1.00;;;;;;5021654;28;20654;-64
2022/10/05 12:10:20;;;;;;;3.75;2.20;;;20.90;1.00;;;;;;5040561;28;20196;-62
2022/10/05 12:13:09;;;;;;;2.35;1.67;;;20.70;1.00;;;;;;5038550;28;20210;-62
2022/10/05 12:16:11;;;;;;;3.75;2.10;;;20.90;1.00;;;;;;5022422;28;20208;-62
2022/10/05 12:18:56;;;;;;;1.90;1.67;;;20.90;1.00;;;;;;5039485;28;20202;-62
2022/10/05 12:21:40;;;;;;;2.65;1.85;;;21.10;1.00;;;;;;5037779;28;20230;-63
2022/10/05 12:24:47;;;;;;;3.75;1.95;;;21.80;1.00;;;;;;5054899;28;20227;-63
2022/10/05 12:27:18;;;;;;;2.20;2.00;;;22.30;1.00;;;;;;5022910;28;20281;-63
2022/10/05 12:29:45;;;;;;;3.97;1.88;;;20.70;1.00;;;;;;5038247;28;20218;-63
2022/10/05 12:32:16;;;;;;;5.57;2.28;;;20.20;1.00;;;;;;5054561;28;20208;-64
2022/10/05 12:35:04;;;;;;;3.78;1.75;;;19.80;1.00;;;;;;5047279;28;20199;-64
2022/10/05 12:37:43;;;;;;;5.13;2.40;;;19.90;1.00;;;;;;5029889;28;20211;-63
2022/10/05 12:40:55;;;;;;;3.17;1.90;;;19.60;1.00;;;;;;5005456;28;20761;-63
2022/10/05 12:43:34;;;;;;;2.10;1.90;;;19.70;1.00;;;;;;5043755;28;20231;-62
2022/10/05 12:46:16;;;;;;;3.60;2.30;;;19.70;1.00;;;;;;5046423;28;20202;-63
2022/10/05 12:49:07;;;;;;;2.83;2.03;;;19.80;1.00;;;;;;5029381;28;20202;-63
2022/10/05 12:51:46;;;;;;;4.63;2.10;;;19.80;1.00;;;;;;5060596;28;20188;-63
2022/10/05 12:54:39;;;;;;;2.83;2.03;;;20.00;1.00;;;;;;5012745;28;20195;-63
2022/10/05 12:57:06;;;;;;;2.10;1.95;;;20.10;1.00;;;;;;5046607;28;20204;-63
2022/10/05 13:00:01;;;;;;;1.92;1.80;;;20.10;1.00;;;;;;5060806;28;20206;-62
2022/10/05 13:02:41;;;;;;;2.28;2.00;;;20.20;1.00;;;;;;5030719;28;20310;-63
2022/10/05 13:05:08;;;;;;;4.28;1.98;;;19.80;1.00;;;;;;5013176;28;20254;-62
2022/10/05 13:07:56;;;;;;;4.63;2.25;;;19.40;1.00;;;;;;5044657;28;20188;-64
2022/10/05 13:10:45;;;;;;;4.93;2.42;;;19.50;1.00;;;;;;5044948;28;20200;-64
2022/10/05 13:13:22;;;;;;;2.20;2.00;;;19.80;1.00;;;;;;5013007;28;20227;-63
2022/10/05 13:15:51;;;;;;;5.13;2.25;;;19.80;1.00;;;;;;5043476;28;20187;-63
2022/10/05 13:18:21;;;;;;;2.88;2.00;;;19.80;1.00;;;;;;5028250;28;20199;-63
2022/10/05 13:21:12;;;;;;;4.70;2.33;;;19.80;1.00;;;;;;5046878;28;20306;-63
2022/10/05 13:23:59;;;;;;;6.63;2.30;;;19.90;1.00;;;;;;5030276;28;20779;-63
2022/10/05 13:26:52;;;;;;;2.60;2.13;;;19.80;1.00;;;;;;5035265;28;20187;-63
2022/10/05 13:29:34;;;;;;;3.60;2.20;;;19.90;1.00;;;;;;5027987;28;20227;-63
2022/10/05 13:32:35;;;;;;;5.40;2.63;;;20.00;1.00;;;;;;5046895;28;20196;-64
2022/10/05 13:35:02;;;;;;;5.82;2.90;;;20.00;1.00;;;;;;5035008;28;20273;-62
2022/10/05 13:38:05;;;;;;;3.42;2.00;;;20.00;1.00;;;;;;5035677;28;20201;-63
2022/10/05 13:40:36;;;;;;;2.00;1.75;;;19.90;1.00;;;;;;5046528;28;20193;-63
2022/10/05 13:43:39;;;;;;;5.38;1.73;;;20.00;1.00;;;;;;5021559;28;20294;-63
2022/10/05 13:46:09;;;;;;;2.35;2.10;;;20.10;1.00;;;;;;5031443;28;20199;-63
2022/10/05 13:48:49;;;;;;;2.40;2.20;;;20.10;1.00;;;;;;5026919;28;20593;-63
2022/10/05 13:51:25;;;;;;;5.25;2.28;;;20.20;1.00;;;;;;5027358;28;20216;-62
2022/10/05 13:54:18;;;;;;;6.43;1.88;;;20.30;1.00;;;;;;5028789;28;20207;-63
2022/10/05 13:57:08;;;;;;;2.15;1.80;;;20.50;1.00;;;;;;5012651;28;20215;-63
2022/10/05 14:00:03;;;;;;;2.05;1.60;;;20.40;1.00;;;;;;5043587;28;20295;-61
2022/10/05 14:02:42;;;;;;;3.65;1.88;;;20.40;1.00;;;;;;5043163;28;20250;-62
2022/10/05 14:05:17;;;;;;;6.07;2.25;;;20.40;1.00;;;;;;5042296;28;20204;-62
2022/10/05 14:08:00;;;;;;;2.95;1.42;;;20.50;1.00;;;;;;5042282;28;20218;-62
2022/10/05 14:10:45;;;;;;;4.47;1.73;;;20.50;1.00;;;;;;5041623;28;20605;-62
2022/10/05 14:13:14;;;;;;;5.25;1.90;;;20.50;1.00;;;;;;5025782;28;20229;-63
2022/10/05 14:15:58;;;;;;;2.33;1.70;;;20.60;1.00;;;;;;5037664;28;20341;-62
2022/10/05 14:18:30;;;;;;;2.42;1.38;;;20.70;1.00;;;;;;5024213;28;20222;-62
2022/10/05 14:21:07;;;;;;;2.00;1.80;;;20.70;1.00;;;;;;5052983;28;20244;-62
2022/10/05 14:23:34;;;;;;;3.25;1.67;;;20.70;1.00;;;;;;5025591;28;20246;-61
2022/10/05 14:26:01;;;;;;;2.47;1.70;;;20.60;1.00;;;;;;5057051;28;20279;-63